sensor_id;sensor_type;location;lat;lon;timestamp;pressure;altitude;pressure_sealevel;temperature;humidity
64352;BME280;50680;52.626;-8.668;2023-03-20T00:01:58;101189.13;;;11.85;100.00
64352;BME280;50680;52.626;-8.668;2023-03-20T00:04:25;101188.44;;;11.81;100.00
64352;BME280;50680;52.626;-8.668;2023-03-20T00:06:52;101192.09;;;11.79;100.00
64352;BME280;50680;52.626;-8.668;2023-03-20T00:09:19;101200.06;;;11.77;100.00
64352;BME280;50680;52.626;-8.668;2023-03-20T00:11:48;101194.16;;;11.74;100.00
64352;BME280;50680;52.626;-8.668;2023-03-20T00:14:17;101182.69;;;11.75;100.00
64352;BME280;50680;52.626;-8.668;2023-03-20T00:16:46;101179.97;;;11.76;100.00
64352;BME280;50680;52.626;-8.668;2023-03-20T00:19:18;101177.72;;;11.70;100.00
64352;BME280;50680;52.626;-8.668;2023-03-20T00:21:46;101187.09;;;11.74;100.00
64352;BME280;50680;52.626;-8.668;2023-03-20T00:24:14;101194.91;;;11.76;100.00
64352;BME280;50680;52.626;-8.668;2023-03-20T00:26:43;101185.59;;;11.70;100.00
64352;BME280;50680;52.626;-8.668;2023-03-20T00:29:19;101178.63;;;11.69;100.00
64352;BME280;50680;52.626;-8.668;2023-03-20T00:31:47;101183.38;;;11.62;100.00
64352;BME280;50680;52.626;-8.668;2023-03-20T00:34:16;101191.94;;;11.66;100.00
64352;BME280;50680;52.626;-8.668;2023-03-20T00:36:45;101179.69;;;11.66;100.00
64352;BME280;50680;52.626;-8.668;2023-03-20T00:39:12;101185.69;;;11.69;100.00
64352;BME280;50680;52.626;-8.668;2023-03-20T00:41:47;101187.34;;;11.70;100.00
64352;BME280;50680;52.626;-8.668;2023-03-20T00:44:32;101199.56;;;11.71;100.00
64352;BME280;50680;52.626;-8.668;2023-03-20T00:47:14;101201.44;;;11.69;100.00
64352;BME280;50680;52.626;-8.668;2023-03-20T00:49:42;101201.34;;;11.70;100.00
64352;BME280;50680;52.626;-8.668;2023-03-20T00:52:11;101195.22;;;11.70;100.00
64352;BME280;50680;52.626;-8.668;2023-03-20T00:54:41;101188.38;;;11.67;100.00
64352;BME280;50680;52.626;-8.668;2023-03-20T00:57:12;101185.25;;;11.60;100.00
64352;BME280;50680;52.626;-8.668;2023-03-20T01:00:06;101182.47;;;11.63;100.00
64352;BME280;50680;52.626;-8.668;2023-03-20T01:02:30;101181.88;;;11.58;100.00
64352;BME280;50680;52.626;-8.668;2023-03-20T01:04:58;101188.84;;;11.59;100.00
64352;BME280;50680;52.626;-8.668;2023-03-20T01:07:25;101186.22;;;11.59;100.00
64352;BME280;50680;52.626;-8.668;2023-03-20T01:09:53;101184.34;;;11.61;100.00
64352;BME280;50680;52.626;-8.668;2023-03-20T01:12:20;101185.84;;;11.65;100.00
64352;BME280;50680;52.626;-8.668;2023-03-20T01:14:55;101186.09;;;11.61;100.00
64352;BME280;50680;52.626;-8.668;2023-03-20T01:17:24;101189.97;;;11.70;100.00
64352;BME280;50680;52.626;-8.668;2023-03-20T01:19:52;101192.81;;;11.66;100.00
64352;BME280;50680;52.626;-8.668;2023-03-20T01:22:18;101184.72;;;11.70;100.00
64352;BME280;50680;52.626;-8.668;2023-03-20T01:24:46;101183.81;;;11.71;100.00
64352;BME280;50680;52.626;-8.668;2023-03-20T01:27:18;101178.38;;;11.74;100.00
64352;BME280;50680;52.626;-8.668;2023-03-20T01:29:45;101176.50;;;11.76;100.00
64352;BME280;50680;52.626;-8.668;2023-03-20T01:32:15;101184.31;;;11.77;100.00
64352;BME280;50680;52.626;-8.668;2023-03-20T01:34:42;101174.63;;;11.78;100.00
64352;BME280;50680;52.626;-8.668;2023-03-20T01:37:12;101175.50;;;11.78;100.00
64352;BME280;50680;52.626;-8.668;2023-03-20T01:39:40;101172.75;;;11.80;100.00
64352;BME280;50680;52.626;-8.668;2023-03-20T01:42:06;101168.53;;;11.77;100.00
64352;BME280;50680;52.626;-8.668;2023-03-20T01:44:34;101176.19;;;11.82;100.00
64352;BME280;50680;52.626;-8.668;2023-03-20T01:47:04;101166.41;;;11.84;100.00
64352;BME280;50680;52.626;-8.668;2023-03-20T01:52:42;101173.63;;;11.80;100.00
64352;BME280;50680;52.626;-8.668;2023-03-20T01:55:09;101167.88;;;11.74;100.00
64352;BME280;50680;52.626;-8.668;2023-03-20T01:57:36;101168.13;;;11.69;100.00
64352;BME280;50680;52.626;-8.668;2023-03-20T02:00:09;101168.41;;;11.64;100.00
64352;BME280;50680;52.626;-8.668;2023-03-20T02:02:38;101161.09;;;11.70;100.00
64352;BME280;50680;52.626;-8.668;2023-03-20T02:05:08;101166.84;;;11.76;100.00
64352;BME280;50680;52.626;-8.668;2023-03-20T02:07:37;101160.00;;;11.74;100.00
64352;BME280;50680;52.626;-8.668;2023-03-20T02:10:08;101154.66;;;11.75;100.00
64352;BME280;50680;52.626;-8.668;2023-03-20T02:12:37;101163.28;;;11.77;100.00
64352;BME280;50680;52.626;-8.668;2023-03-20T02:15:06;101146.88;;;11.74;100.00
64352;BME280;50680;52.626;-8.668;2023-03-20T02:17:33;101145.53;;;11.66;100.00
64352;BME280;50680;52.626;-8.668;2023-03-20T02:31:19;101141.91;;;11.37;100.00
64352;BME280;50680;52.626;-8.668;2023-03-20T02:39:33;101147.09;;;11.39;100.00
64352;BME280;50680;52.626;-8.668;2023-03-20T02:42:22;101139.81;;;11.44;100.00
64352;BME280;50680;52.626;-8.668;2023-03-20T02:47:55;101122.19;;;11.46;100.00
64352;BME280;50680;52.626;-8.668;2023-03-20T02:50:54;101117.41;;;11.37;100.00
64352;BME280;50680;52.626;-8.668;2023-03-20T03:01:21;101126.38;;;11.48;100.00
64352;BME280;50680;52.626;-8.668;2023-03-20T03:04:00;101128.94;;;11.50;100.00
64352;BME280;50680;52.626;-8.668;2023-03-20T03:06:31;101132.31;;;11.52;100.00
64352;BME280;50680;52.626;-8.668;2023-03-20T03:09:13;101130.56;;;11.53;100.00
64352;BME280;50680;52.626;-8.668;2023-03-20T03:11:48;101129.69;;;11.52;100.00
64352;BME280;50680;52.626;-8.668;2023-03-20T03:17:01;101123.34;;;11.56;100.00
64352;BME280;50680;52.626;-8.668;2023-03-20T03:19:31;101108.50;;;11.55;100.00
64352;BME280;50680;52.626;-8.668;2023-03-20T03:21:59;101108.44;;;11.57;100.00
64352;BME280;50680;52.626;-8.668;2023-03-20T03:27:36;101110.97;;;11.58;100.00
64352;BME280;50680;52.626;-8.668;2023-03-20T03:30:24;101100.47;;;11.58;100.00
64352;BME280;50680;52.626;-8.668;2023-03-20T03:35:32;101087.75;;;11.66;100.00
64352;BME280;50680;52.626;-8.668;2023-03-20T03:43:30;101086.63;;;11.71;100.00
64352;BME280;50680;52.626;-8.668;2023-03-20T03:46:12;101072.72;;;11.69;100.00
64352;BME280;50680;52.626;-8.668;2023-03-20T03:48:49;101072.66;;;11.70;100.00
64352;BME280;50680;52.626;-8.668;2023-03-20T03:51:24;101067.22;;;11.73;100.00
64352;BME280;50680;52.626;-8.668;2023-03-20T03:53:59;101072.34;;;11.75;100.00
64352;BME280;50680;52.626;-8.668;2023-03-20T03:56:30;101070.50;;;11.77;100.00
64352;BME280;50680;52.626;-8.668;2023-03-20T03:59:02;101072.09;;;11.79;100.00
64352;BME280;50680;52.626;-8.668;2023-03-20T04:01:32;101074.63;;;11.81;100.00
64352;BME280;50680;52.626;-8.668;2023-03-20T04:04:04;101066.84;;;11.79;100.00
64352;BME280;50680;52.626;-8.668;2023-03-20T04:06:32;101063.38;;;11.79;100.00
64352;BME280;50680;52.626;-8.668;2023-03-20T04:08:59;101060.00;;;11.77;100.00
64352;BME280;50680;52.626;-8.668;2023-03-20T04:11:26;101049.28;;;11.80;100.00
64352;BME280;50680;52.626;-8.668;2023-03-20T04:13:56;101055.75;;;11.74;100.00
64352;BME280;50680;52.626;-8.668;2023-03-20T04:16:23;101040.56;;;11.79;100.00
64352;BME280;50680;52.626;-8.668;2023-03-20T04:18:50;101047.03;;;11.74;100.00
64352;BME280;50680;52.626;-8.668;2023-03-20T04:21:18;101054.09;;;11.73;100.00
64352;BME280;50680;52.626;-8.668;2023-03-20T04:23:45;101047.03;;;11.74;100.00
64352;BME280;50680;52.626;-8.668;2023-03-20T04:26:12;101036.84;;;11.83;100.00
64352;BME280;50680;52.626;-8.668;2023-03-20T04:28:39;101037.50;;;11.87;100.00
64352;BME280;50680;52.626;-8.668;2023-03-20T04:31:06;101041.81;;;11.88;100.00
64352;BME280;50680;52.626;-8.668;2023-03-20T04:33:33;101033.09;;;11.88;100.00
64352;BME280;50680;52.626;-8.668;2023-03-20T04:35:59;101027.84;;;11.88;100.00
64352;BME280;50680;52.626;-8.668;2023-03-20T04:38:26;101028.97;;;11.83;100.00
64352;BME280;50680;52.626;-8.668;2023-03-20T04:40:53;101031.03;;;11.78;100.00
64352;BME280;50680;52.626;-8.668;2023-03-20T04:43:20;101033.34;;;11.83;100.00
64352;BME280;50680;52.626;-8.668;2023-03-20T04:45:47;101021.25;;;11.80;100.00
64352;BME280;50680;52.626;-8.668;2023-03-20T04:48:14;101017.75;;;11.80;100.00
64352;BME280;50680;52.626;-8.668;2023-03-20T04:50:40;101021.25;;;11.80;100.00
64352;BME280;50680;52.626;-8.668;2023-03-20T04:53:07;101012.50;;;11.80;100.00
64352;BME280;50680;52.626;-8.668;2023-03-20T04:55:34;101016.84;;;11.81;100.00
64352;BME280;50680;52.626;-8.668;2023-03-20T04:58:01;101008.69;;;11.85;100.00
64352;BME280;50680;52.626;-8.668;2023-03-20T05:00:28;100998.44;;;11.81;100.00
64352;BME280;50680;52.626;-8.668;2023-03-20T05:02:55;101001.81;;;11.83;100.00
64352;BME280;50680;52.626;-8.668;2023-03-20T05:05:22;100997.13;;;11.74;100.00
64352;BME280;50680;52.626;-8.668;2023-03-20T05:07:50;100997.78;;;11.77;100.00
64352;BME280;50680;52.626;-8.668;2023-03-20T05:10:18;100996.56;;;11.83;100.00
64352;BME280;50680;52.626;-8.668;2023-03-20T05:12:44;100994.13;;;11.80;100.00
64352;BME280;50680;52.626;-8.668;2023-03-20T05:15:12;100997.97;;;11.74;100.00
64352;BME280;50680;52.626;-8.668;2023-03-20T05:17:39;100995.81;;;11.81;100.00
64352;BME280;50680;52.626;-8.668;2023-03-20T05:20:07;101002.97;;;11.79;100.00
64352;BME280;50680;52.626;-8.668;2023-03-20T05:22:34;100999.09;;;11.70;100.00
64352;BME280;50680;52.626;-8.668;2023-03-20T05:25:00;101010.44;;;11.71;100.00
64352;BME280;50680;52.626;-8.668;2023-03-20T05:27:27;101007.56;;;11.75;100.00
64352;BME280;50680;52.626;-8.668;2023-03-20T05:29:54;100997.56;;;11.66;100.00
64352;BME280;50680;52.626;-8.668;2023-03-20T05:32:21;100995.53;;;11.71;100.00
64352;BME280;50680;52.626;-8.668;2023-03-20T05:34:47;101013.44;;;11.64;100.00
64352;BME280;50680;52.626;-8.668;2023-03-20T05:37:14;101014.53;;;11.60;100.00
64352;BME280;50680;52.626;-8.668;2023-03-20T05:39:41;101010.13;;;11.61;100.00
64352;BME280;50680;52.626;-8.668;2023-03-20T05:42:08;101007.50;;;11.61;100.00
64352;BME280;50680;52.626;-8.668;2023-03-20T05:44:34;101008.38;;;11.61;100.00
64352;BME280;50680;52.626;-8.668;2023-03-20T05:47:01;101003.13;;;11.61;100.00
64352;BME280;50680;52.626;-8.668;2023-03-20T05:49:28;100997.13;;;11.59;100.00
64352;BME280;50680;52.626;-8.668;2023-03-20T05:51:55;100987.63;;;11.57;100.00
64352;BME280;50680;52.626;-8.668;2023-03-20T05:54:22;100986.97;;;11.53;100.00
64352;BME280;50680;52.626;-8.668;2023-03-20T05:56:49;100989.94;;;11.47;100.00
64352;BME280;50680;52.626;-8.668;2023-03-20T05:59:16;100990.06;;;11.45;100.00
64352;BME280;50680;52.626;-8.668;2023-03-20T06:01:42;100993.69;;;11.43;100.00
64352;BME280;50680;52.626;-8.668;2023-03-20T06:04:09;100991.06;;;11.43;100.00
64352;BME280;50680;52.626;-8.668;2023-03-20T06:06:36;100989.47;;;11.40;100.00
64352;BME280;50680;52.626;-8.668;2023-03-20T06:09:04;100987.84;;;11.38;100.00
64352;BME280;50680;52.626;-8.668;2023-03-20T06:11:31;100990.88;;;11.46;100.00
64352;BME280;50680;52.626;-8.668;2023-03-20T06:14:00;100993.34;;;11.49;100.00
64352;BME280;50680;52.626;-8.668;2023-03-20T06:16:27;101007.22;;;11.51;100.00
64352;BME280;50680;52.626;-8.668;2023-03-20T06:18:54;100996.44;;;11.56;100.00
64352;BME280;50680;52.626;-8.668;2023-03-20T06:21:20;100994.75;;;11.55;100.00
64352;BME280;50680;52.626;-8.668;2023-03-20T06:23:47;101009.97;;;11.64;100.00
64352;BME280;50680;52.626;-8.668;2023-03-20T06:26:14;101015.88;;;11.67;100.00
64352;BME280;50680;52.626;-8.668;2023-03-20T06:28:41;101017.75;;;11.65;100.00
64352;BME280;50680;52.626;-8.668;2023-03-20T06:31:08;101017.75;;;11.65;100.00
64352;BME280;50680;52.626;-8.668;2023-03-20T06:33:35;101014.00;;;11.70;100.00
64352;BME280;50680;52.626;-8.668;2023-03-20T06:36:03;101017.41;;;11.72;100.00
64352;BME280;50680;52.626;-8.668;2023-03-20T06:38:30;101010.44;;;11.71;100.00
64352;BME280;50680;52.626;-8.668;2023-03-20T06:40:57;101025.38;;;11.70;100.00
64352;BME280;50680;52.626;-8.668;2023-03-20T06:43:24;101016.44;;;11.73;100.00
64352;BME280;50680;52.626;-8.668;2023-03-20T06:45:51;101005.38;;;11.67;100.00
64352;BME280;50680;52.626;-8.668;2023-03-20T06:48:18;101016.44;;;11.73;100.00
64352;BME280;50680;52.626;-8.668;2023-03-20T06:50:51;101011.94;;;11.75;100.00
64352;BME280;50680;52.626;-8.668;2023-03-20T06:53:18;101018.81;;;11.77;100.00
64352;BME280;50680;52.626;-8.668;2023-03-20T06:55:46;101030.06;;;11.79;100.00
64352;BME280;50680;52.626;-8.668;2023-03-20T06:58:14;101025.91;;;11.91;100.00
64352;BME280;50680;52.626;-8.668;2023-03-20T07:00:41;101018.84;;;11.92;100.00
64352;BME280;50680;52.626;-8.668;2023-03-20T07:03:08;101007.50;;;11.91;100.00
64352;BME280;50680;52.626;-8.668;2023-03-20T07:05:35;101018.84;;;11.92;100.00
64352;BME280;50680;52.626;-8.668;2023-03-20T07:08:04;101016.97;;;11.94;100.00
64352;BME280;50680;52.626;-8.668;2023-03-20T07:10:33;101021.22;;;11.96;100.00
64352;BME280;50680;52.626;-8.668;2023-03-20T07:13:00;101007.25;;;11.96;100.00
64352;BME280;50680;52.626;-8.668;2023-03-20T07:15:27;101006.38;;;11.95;100.00
64352;BME280;50680;52.626;-8.668;2023-03-20T07:17:55;100999.91;;;12.01;100.00
64352;BME280;50680;52.626;-8.668;2023-03-20T07:20:22;100996.16;;;12.05;100.00
64352;BME280;50680;52.626;-8.668;2023-03-20T07:22:49;100994.00;;;12.12;100.00
64352;BME280;50680;52.626;-8.668;2023-03-20T07:25:16;100986.78;;;12.15;100.00
64352;BME280;50680;52.626;-8.668;2023-03-20T07:27:51;100983.66;;;12.09;100.00
64352;BME280;50680;52.626;-8.668;2023-03-20T07:30:18;100990.06;;;12.19;100.00
64352;BME280;50680;52.626;-8.668;2023-03-20T07:32:45;100996.06;;;12.21;100.00
64352;BME280;50680;52.626;-8.668;2023-03-20T07:35:12;100985.63;;;12.19;100.00
64352;BME280;50680;52.626;-8.668;2023-03-20T07:37:39;100994.16;;;12.23;100.00
64352;BME280;50680;52.626;-8.668;2023-03-20T07:40:07;101005.47;;;12.25;100.00
64352;BME280;50680;52.626;-8.668;2023-03-20T07:42:34;101007.13;;;12.26;100.00
64352;BME280;50680;52.626;-8.668;2023-03-20T07:45:01;101008.44;;;12.33;100.00
64352;BME280;50680;52.626;-8.668;2023-03-20T07:47:28;101012.03;;;12.32;100.00
64352;BME280;50680;52.626;-8.668;2023-03-20T07:49:55;101010.13;;;12.34;100.00
64352;BME280;50680;52.626;-8.668;2023-03-20T07:52:21;101012.69;;;12.36;100.00
64352;BME280;50680;52.626;-8.668;2023-03-20T07:54:48;101024.22;;;12.33;100.00
64352;BME280;50680;52.626;-8.668;2023-03-20T07:57:15;101018.94;;;12.33;100.00
64352;BME280;50680;52.626;-8.668;2023-03-20T07:59:42;101028.34;;;12.37;100.00
64352;BME280;50680;52.626;-8.668;2023-03-20T08:02:13;101019.03;;;12.32;100.00
64352;BME280;50680;52.626;-8.668;2023-03-20T08:04:42;101022.16;;;12.38;100.00
64352;BME280;50680;52.626;-8.668;2023-03-20T08:07:10;101017.63;;;12.40;100.00
64352;BME280;50680;52.626;-8.668;2023-03-20T08:09:37;101022.78;;;12.42;100.00
64352;BME280;50680;52.626;-8.668;2023-03-20T08:12:04;101035.66;;;12.47;100.00
64352;BME280;50680;52.626;-8.668;2023-03-20T08:14:32;101024.50;;;12.43;100.00
64352;BME280;50680;52.626;-8.668;2023-03-20T08:16:58;101034.66;;;12.49;100.00
64352;BME280;50680;52.626;-8.668;2023-03-20T08:19:40;101034.25;;;12.55;100.00
64352;BME280;50680;52.626;-8.668;2023-03-20T08:22:07;101027.97;;;12.58;100.00
64352;BME280;50680;52.626;-8.668;2023-03-20T08:24:34;101028.72;;;12.60;100.00
64352;BME280;50680;52.626;-8.668;2023-03-20T08:27:01;101028.72;;;12.60;100.00
64352;BME280;50680;52.626;-8.668;2023-03-20T08:29:27;101027.56;;;12.64;100.00
64352;BME280;50680;52.626;-8.668;2023-03-20T08:31:54;101024.19;;;12.62;100.00
64352;BME280;50680;52.626;-8.668;2023-03-20T08:34:21;101022.03;;;12.69;100.00
64352;BME280;50680;52.626;-8.668;2023-03-20T08:36:49;101020.22;;;12.69;100.00
64352;BME280;50680;52.626;-8.668;2023-03-20T08:39:17;101007.63;;;12.74;100.00
64352;BME280;50680;52.626;-8.668;2023-03-20T08:41:44;101010.91;;;12.78;100.00
64352;BME280;50680;52.626;-8.668;2023-03-20T08:44:12;101014.00;;;12.85;100.00
64352;BME280;50680;52.626;-8.668;2023-03-20T08:46:39;101018.09;;;12.89;100.00
64352;BME280;50680;52.626;-8.668;2023-03-20T08:49:06;101018.00;;;12.90;100.00
64352;BME280;50680;52.626;-8.668;2023-03-20T08:51:32;101011.00;;;13.04;100.00
64352;BME280;50680;52.626;-8.668;2023-03-20T08:53:59;101008.19;;;13.07;100.00
64352;BME280;50680;52.626;-8.668;2023-03-20T08:56:26;101009.91;;;13.21;100.00
64352;BME280;50680;52.626;-8.668;2023-03-20T08:58:53;101010.38;;;13.27;100.00
64352;BME280;50680;52.626;-8.668;2023-03-20T09:01:21;101002.38;;;13.29;100.00
64352;BME280;50680;52.626;-8.668;2023-03-20T09:03:48;101013.38;;;13.48;100.00
64352;BME280;50680;52.626;-8.668;2023-03-20T09:06:15;101013.38;;;13.48;100.00
64352;BME280;50680;52.626;-8.668;2023-03-20T09:08:42;101006.84;;;13.67;100.00
64352;BME280;50680;52.626;-8.668;2023-03-20T09:11:09;101002.78;;;13.76;100.00
64352;BME280;50680;52.626;-8.668;2023-03-20T09:13:35;100997.38;;;13.77;100.00
64352;BME280;50680;52.626;-8.668;2023-03-20T09:16:02;100992.78;;;13.81;100.00
64352;BME280;50680;52.626;-8.668;2023-03-20T09:18:29;100980.75;;;13.89;100.00
64352;BME280;50680;52.626;-8.668;2023-03-20T09:20:56;100979.56;;;13.94;100.00
64352;BME280;50680;52.626;-8.668;2023-03-20T09:23:23;100984.53;;;13.98;100.00
64352;BME280;50680;52.626;-8.668;2023-03-20T09:25:50;100981.56;;;14.03;100.00
64352;BME280;50680;52.626;-8.668;2023-03-20T09:28:17;100973.13;;;14.10;100.00
64352;BME280;50680;52.626;-8.668;2023-03-20T09:30:44;100982.81;;;14.10;100.00
64352;BME280;50680;52.626;-8.668;2023-03-20T09:33:11;100978.81;;;14.17;100.00
64352;BME280;50680;52.626;-8.668;2023-03-20T09:35:40;100983.97;;;14.19;100.00
64352;BME280;50680;52.626;-8.668;2023-03-20T09:38:09;100988.09;;;14.23;100.00
64352;BME280;50680;52.626;-8.668;2023-03-20T09:49:01;100985.16;;;14.27;100.00
64352;BME280;50680;52.626;-8.668;2023-03-20T09:54:25;100982.06;;;14.34;100.00
64352;BME280;50680;52.626;-8.668;2023-03-20T09:56:54;100974.88;;;14.36;100.00
64352;BME280;50680;52.626;-8.668;2023-03-20T09:59:24;100979.41;;;14.46;100.00
64352;BME280;50680;52.626;-8.668;2023-03-20T10:01:57;100982.97;;;14.45;100.00
64352;BME280;50680;52.626;-8.668;2023-03-20T10:04:27;100977.47;;;14.61;100.00
64352;BME280;50680;52.626;-8.668;2023-03-20T10:06:55;100977.25;;;14.64;100.00
64352;BME280;50680;52.626;-8.668;2023-03-20T10:09:27;100976.53;;;14.62;100.00
64352;BME280;50680;52.626;-8.668;2023-03-20T10:15:09;100973.44;;;14.69;100.00
64352;BME280;50680;52.626;-8.668;2023-03-20T10:20:35;100975.84;;;14.96;100.00
64352;BME280;50680;52.626;-8.668;2023-03-20T10:23:15;100969.28;;;15.01;100.00
64352;BME280;50680;52.626;-8.668;2023-03-20T10:25:49;100964.03;;;15.13;100.00
64352;BME280;50680;52.626;-8.668;2023-03-20T10:28:25;100962.41;;;15.23;100.00
64352;BME280;50680;52.626;-8.668;2023-03-20T10:33:51;100942.28;;;15.45;100.00
64352;BME280;50680;52.626;-8.668;2023-03-20T10:39:33;100935.59;;;15.63;100.00
64352;BME280;50680;52.626;-8.668;2023-03-20T10:42:12;100938.50;;;15.83;100.00
64352;BME280;50680;52.626;-8.668;2023-03-20T10:44:44;100933.53;;;15.67;100.00
64352;BME280;50680;52.626;-8.668;2023-03-20T10:47:17;100940.94;;;15.50;100.00
64352;BME280;50680;52.626;-8.668;2023-03-20T10:49:52;100937.38;;;15.51;100.00
64352;BME280;50680;52.626;-8.668;2023-03-20T10:52:29;100934.94;;;15.48;100.00
64352;BME280;50680;52.626;-8.668;2023-03-20T10:55:05;100929.31;;;15.53;100.00
64352;BME280;50680;52.626;-8.668;2023-03-20T10:57:36;100935.31;;;15.55;100.00
64352;BME280;50680;52.626;-8.668;2023-03-20T11:00:13;100941.22;;;15.47;100.00
64352;BME280;50680;52.626;-8.668;2023-03-20T11:02:45;100942.53;;;15.53;100.00
64352;BME280;50680;52.626;-8.668;2023-03-20T11:05:28;100931.69;;;15.45;100.00
64352;BME280;50680;52.626;-8.668;2023-03-20T11:08:14;100928.59;;;15.51;100.00
64352;BME280;50680;52.626;-8.668;2023-03-20T11:10:42;100941.34;;;15.68;100.00
64352;BME280;50680;52.626;-8.668;2023-03-20T11:13:26;100948.91;;;15.61;100.00
64352;BME280;50680;52.626;-8.668;2023-03-20T11:15:55;100935.06;;;15.47;100.00
64352;BME280;50680;52.626;-8.668;2023-03-20T11:18:24;100932.69;;;15.44;100.00
64352;BME280;50680;52.626;-8.668;2023-03-20T11:20:56;100936.00;;;15.34;100.00
64352;BME280;50680;52.626;-8.668;2023-03-20T11:23:26;100927.84;;;15.37;100.00
64352;BME280;50680;52.626;-8.668;2023-03-20T11:25:59;100933.03;;;15.39;100.00
64352;BME280;50680;52.626;-8.668;2023-03-20T11:28:36;100931.25;;;15.51;100.00
64352;BME280;50680;52.626;-8.668;2023-03-20T11:31:16;100913.94;;;15.47;100.00
64352;BME280;50680;52.626;-8.668;2023-03-20T11:34:00;100920.91;;;15.48;100.00
64352;BME280;50680;52.626;-8.668;2023-03-20T11:36:35;100917.16;;;15.50;100.00
64352;BME280;50680;52.626;-8.668;2023-03-20T11:44:31;100913.44;;;15.41;100.00
64352;BME280;50680;52.626;-8.668;2023-03-20T11:47:04;100912.25;;;15.57;100.00
64352;BME280;50680;52.626;-8.668;2023-03-20T11:49:44;100907.19;;;15.42;100.00
64352;BME280;50680;52.626;-8.668;2023-03-20T11:52:14;100902.03;;;15.41;100.00
64352;BME280;50680;52.626;-8.668;2023-03-20T11:54:51;100908.03;;;15.43;100.00
64352;BME280;50680;52.626;-8.668;2023-03-20T11:57:40;100903.13;;;15.38;100.00
64352;BME280;50680;52.626;-8.668;2023-03-20T12:02:40;100888.72;;;15.54;100.00
64352;BME280;50680;52.626;-8.668;2023-03-20T12:05:28;100891.13;;;15.57;100.00
64352;BME280;50680;52.626;-8.668;2023-03-20T12:08:05;100884.78;;;15.82;100.00
64352;BME280;50680;52.626;-8.668;2023-03-20T12:10:40;100883.59;;;15.97;100.00
64352;BME280;50680;52.626;-8.668;2023-03-20T12:15:48;100883.94;;;16.04;100.00
64352;BME280;50680;52.626;-8.668;2023-03-20T12:18:28;100872.63;;;16.02;100.00
64352;BME280;50680;52.626;-8.668;2023-03-20T12:23:45;100871.81;;;15.90;100.00
64352;BME280;50680;52.626;-8.668;2023-03-20T12:31:45;100856.19;;;15.87;100.00
64352;BME280;50680;52.626;-8.668;2023-03-20T12:34:21;100848.09;;;16.00;100.00
64352;BME280;50680;52.626;-8.668;2023-03-20T12:36:50;100857.50;;;16.04;100.00
64352;BME280;50680;52.626;-8.668;2023-03-20T12:39:26;100854.22;;;16.12;100.00
64352;BME280;50680;52.626;-8.668;2023-03-20T12:47:10;100833.69;;;16.04;100.00
64352;BME280;50680;52.626;-8.668;2023-03-20T12:50:06;100821.19;;;15.95;100.00
64352;BME280;50680;52.626;-8.668;2023-03-20T13:00:57;100806.78;;;15.99;100.00
64352;BME280;50680;52.626;-8.668;2023-03-20T13:12:05;100791.38;;;16.04;100.00
64352;BME280;50680;52.626;-8.668;2023-03-20T13:20:27;100791.25;;;16.06;100.00
64352;BME280;50680;52.626;-8.668;2023-03-20T13:23:08;100782.75;;;15.68;100.00
64352;BME280;50680;52.626;-8.668;2023-03-20T13:34:01;100770.63;;;15.77;100.00
64352;BME280;50680;52.626;-8.668;2023-03-20T13:39:26;100762.66;;;15.88;100.00
64352;BME280;50680;52.626;-8.668;2023-03-20T13:41:58;100761.84;;;15.88;100.00
64352;BME280;50680;52.626;-8.668;2023-03-20T13:44:28;100759.06;;;15.89;100.00
64352;BME280;50680;52.626;-8.668;2023-03-20T13:47:02;100763.28;;;15.92;100.00
64352;BME280;50680;52.626;-8.668;2023-03-20T13:52:12;100745.75;;;15.68;100.00
64352;BME280;50680;52.626;-8.668;2023-03-20T13:55:06;100747.19;;;15.72;100.00
64352;BME280;50680;52.626;-8.668;2023-03-20T13:58:01;100740.94;;;15.62;100.00
64352;BME280;50680;52.626;-8.668;2023-03-20T14:00:37;100741.19;;;15.70;100.00
64352;BME280;50680;52.626;-8.668;2023-03-20T14:05:45;100724.59;;;15.68;100.00
64352;BME280;50680;52.626;-8.668;2023-03-20T14:13:31;100708.53;;;15.60;100.00
64352;BME280;50680;52.626;-8.668;2023-03-20T14:16:00;100712.00;;;15.60;100.00
64352;BME280;50680;52.626;-8.668;2023-03-20T14:18:29;100714.63;;;15.60;100.00
64352;BME280;50680;52.626;-8.668;2023-03-20T14:21:08;100714.97;;;15.67;100.00
64352;BME280;50680;52.626;-8.668;2023-03-20T14:23:37;100713.53;;;15.74;100.00
64352;BME280;50680;52.626;-8.668;2023-03-20T14:26:34;100703.47;;;15.68;100.00
64352;BME280;50680;52.626;-8.668;2023-03-20T14:31:36;100689.53;;;15.77;100.00
64352;BME280;50680;52.626;-8.668;2023-03-20T14:36:57;100681.59;;;15.77;100.00
64352;BME280;50680;52.626;-8.668;2023-03-20T14:40:01;100676.78;;;15.71;100.00
64352;BME280;50680;52.626;-8.668;2023-03-20T14:42:32;100670.94;;;15.56;100.00
64352;BME280;50680;52.626;-8.668;2023-03-20T14:57:50;100663.22;;;14.76;100.00
64352;BME280;50680;52.626;-8.668;2023-03-20T15:00:28;100661.63;;;14.51;100.00
64352;BME280;50680;52.626;-8.668;2023-03-20T15:03:08;100657.63;;;14.34;100.00
64352;BME280;50680;52.626;-8.668;2023-03-20T15:05:38;100647.19;;;14.21;100.00
64352;BME280;50680;52.626;-8.668;2023-03-20T15:08:26;100649.88;;;14.08;100.00
64352;BME280;50680;52.626;-8.668;2023-03-20T15:10:57;100644.63;;;14.08;100.00
64352;BME280;50680;52.626;-8.668;2023-03-20T15:13:26;100652.06;;;14.14;100.00
64352;BME280;50680;52.626;-8.668;2023-03-20T15:16:04;100653.00;;;14.02;100.00
64352;BME280;50680;52.626;-8.668;2023-03-20T15:18:38;100640.50;;;13.92;100.00
64352;BME280;50680;52.626;-8.668;2023-03-20T15:21:14;100640.38;;;13.94;100.00
64352;BME280;50680;52.626;-8.668;2023-03-20T15:23:42;100637.84;;;13.92;100.00